sensor_id;sensor_type;location;lat;lon;timestamp;pressure;altitude;pressure_sealevel;temperature;humidity
77110;BME280;66062;52.464;16.922;2023-09-19T00:02:12;99751.28;;;19.47;100.00
77110;BME280;66062;52.464;16.922;2023-09-19T00:04:37;99752.56;;;19.44;100.00
77110;BME280;66062;52.464;16.922;2023-09-19T00:07:05;99746.03;;;19.52;100.00
77110;BME280;66062;52.464;16.922;2023-09-19T00:09:30;99754.59;;;19.42;100.00
77110;BME280;66062;52.464;16.922;2023-09-19T00:12:03;99754.25;;;19.32;100.00
77110;BME280;66062;52.464;16.922;2023-09-19T00:14:29;99750.06;;;19.36;100.00
77110;BME280;66062;52.464;16.922;2023-09-19T00:16:54;99751.16;;;19.29;100.00
77110;BME280;66062;52.464;16.922;2023-09-19T00:19:20;99771.00;;;19.16;100.00
77110;BME280;66062;52.464;16.922;2023-09-19T00:21:45;99778.22;;;19.29;100.00
77110;BME280;66062;52.464;16.922;2023-09-19T00:24:12;99783.84;;;19.27;100.00
77110;BME280;66062;52.464;16.922;2023-09-19T00:26:39;99781.81;;;19.16;100.00
77110;BME280;66062;52.464;16.922;2023-09-19T00:29:05;99792.88;;;19.14;100.00
77110;BME280;66062;52.464;16.922;2023-09-19T00:31:34;99793.31;;;19.05;100.00
77110;BME280;66062;52.464;16.922;2023-09-19T00:33:59;99801.41;;;19.05;100.00
77110;BME280;66062;52.464;16.922;2023-09-19T00:36:32;99791.28;;;18.94;100.00
77110;BME280;66062;52.464;16.922;2023-09-19T00:38:59;99783.59;;;18.91;100.00
77110;BME280;66062;52.464;16.922;2023-09-19T00:41:24;99784.44;;;18.91;100.00
77110;BME280;66062;52.464;16.922;2023-09-19T00:43:50;99784.00;;;18.94;100.00
77110;BME280;66062;52.464;16.922;2023-09-19T00:46:18;99784.38;;;19.04;100.00
77110;BME280;66062;52.464;16.922;2023-09-19T00:48:44;99793.34;;;18.98;100.00
77110;BME280;66062;52.464;16.922;2023-09-19T00:51:10;99779.88;;;18.85;100.00
77110;BME280;66062;52.464;16.922;2023-09-19T00:53:35;99771.53;;;18.87;100.00
77110;BME280;66062;52.464;16.922;2023-09-19T00:56:03;99760.66;;;19.00;100.00
77110;BME280;66062;52.464;16.922;2023-09-19T00:58:31;99770.22;;;19.09;100.00
77110;BME280;66062;52.464;16.922;2023-09-19T01:00:59;99769.78;;;19.05;100.00
77110;BME280;66062;52.464;16.922;2023-09-19T01:03:24;99776.63;;;19.14;100.00
77110;BME280;66062;52.464;16.922;2023-09-19T01:05:49;99773.13;;;19.07;100.00
77110;BME280;66062;52.464;16.922;2023-09-19T01:08:15;99780.41;;;19.07;100.00
77110;BME280;66062;52.464;16.922;2023-09-19T01:10:49;99773.59;;;18.98;100.00
77110;BME280;66062;52.464;16.922;2023-09-19T01:16:13;99762.31;;;19.01;100.00
77110;BME280;66062;52.464;16.922;2023-09-19T01:19:12;99759.44;;;18.96;100.00
77110;BME280;66062;52.464;16.922;2023-09-19T01:25:16;99775.91;;;18.94;100.00
77110;BME280;66062;52.464;16.922;2023-09-19T01:30:35;99775.47;;;18.97;100.00
77110;BME280;66062;52.464;16.922;2023-09-19T01:33:05;99764.44;;;18.99;100.00
77110;BME280;66062;52.464;16.922;2023-09-19T01:35:31;99772.38;;;18.94;100.00
77110;BME280;66062;52.464;16.922;2023-09-19T01:37:58;99764.66;;;18.91;100.00
77110;BME280;66062;52.464;16.922;2023-09-19T01:40:24;99765.50;;;18.85;100.00
77110;BME280;66062;52.464;16.922;2023-09-19T01:42:58;99759.03;;;18.92;100.00
77110;BME280;66062;52.464;16.922;2023-09-19T01:48:16;99769.88;;;18.92;100.00
77110;BME280;66062;52.464;16.922;2023-09-19T01:50:58;99755.91;;;18.95;100.00
77110;BME280;66062;52.464;16.922;2023-09-19T01:53:51;99756.06;;;19.07;100.00
77110;BME280;66062;52.464;16.922;2023-09-19T01:56:36;99748.22;;;18.99;100.00
77110;BME280;66062;52.464;16.922;2023-09-19T01:59:10;99752.91;;;19.10;100.00
77110;BME280;66062;52.464;16.922;2023-09-19T02:01:38;99750.00;;;18.67;100.00
77110;BME280;66062;52.464;16.922;2023-09-19T02:04:04;99749.19;;;18.53;100.00
77110;BME280;66062;52.464;16.922;2023-09-19T02:06:30;99757.03;;;18.74;100.00
77110;BME280;66062;52.464;16.922;2023-09-19T02:08:56;99757.28;;;18.53;100.00
77110;BME280;66062;52.464;16.922;2023-09-19T02:11:21;99753.09;;;18.70;100.00
77110;BME280;66062;52.464;16.922;2023-09-19T02:13:47;99750.13;;;18.85;100.00
77110;BME280;66062;52.464;16.922;2023-09-19T02:16:12;99757.84;;;18.82;100.00
77110;BME280;66062;52.464;16.922;2023-09-19T02:18:38;99753.34;;;18.62;100.00
77110;BME280;66062;52.464;16.922;2023-09-19T02:21:04;99746.00;;;18.83;100.00
77110;BME280;66062;52.464;16.922;2023-09-19T02:23:32;99754.56;;;18.66;100.00
77110;BME280;66062;52.464;16.922;2023-09-19T02:25:59;99751.22;;;18.64;100.00
77110;BME280;66062;52.464;16.922;2023-09-19T02:28:27;99758.66;;;18.82;100.00
77110;BME280;66062;52.464;16.922;2023-09-19T02:30:57;99768.91;;;18.67;100.00
77110;BME280;66062;52.464;16.922;2023-09-19T02:33:22;99764.94;;;18.69;100.00
77110;BME280;66062;52.464;16.922;2023-09-19T02:35:48;99753.31;;;18.49;100.00
77110;BME280;66062;52.464;16.922;2023-09-19T02:38:13;99763.69;;;18.72;100.00
77110;BME280;66062;52.464;16.922;2023-09-19T02:40:40;99760.81;;;18.60;100.00
77110;BME280;66062;52.464;16.922;2023-09-19T02:43:05;99765.63;;;18.58;100.00
77110;BME280;66062;52.464;16.922;2023-09-19T02:45:31;99762.47;;;18.61;100.00
77110;BME280;66062;52.464;16.922;2023-09-19T02:47:57;99759.16;;;18.46;100.00
77110;BME280;66062;52.464;16.922;2023-09-19T02:50:23;99767.50;;;18.58;100.00
77110;BME280;66062;52.464;16.922;2023-09-19T02:52:48;99767.25;;;18.66;100.00
77110;BME280;66062;52.464;16.922;2023-09-19T02:55:15;99769.94;;;18.66;100.00
77110;BME280;66062;52.464;16.922;2023-09-19T02:57:46;99767.09;;;18.41;100.00
77110;BME280;66062;52.464;16.922;2023-09-19T03:00:12;99769.16;;;18.39;100.00
77110;BME280;66062;52.464;16.922;2023-09-19T03:02:38;99767.91;;;18.42;100.00
77110;BME280;66062;52.464;16.922;2023-09-19T03:05:05;99765.25;;;18.28;100.00
77110;BME280;66062;52.464;16.922;2023-09-19T03:07:31;99767.47;;;18.51;100.00
77110;BME280;66062;52.464;16.922;2023-09-19T03:09:56;99762.09;;;18.38;100.00
77110;BME280;66062;52.464;16.922;2023-09-19T03:12:21;99755.44;;;18.34;100.00
77110;BME280;66062;52.464;16.922;2023-09-19T03:14:47;99755.84;;;18.44;100.00
77110;BME280;66062;52.464;16.922;2023-09-19T03:17:13;99753.78;;;18.39;100.00
77110;BME280;66062;52.464;16.922;2023-09-19T03:19:40;99776.03;;;18.35;100.00
77110;BME280;66062;52.464;16.922;2023-09-19T03:22:05;99768.75;;;18.29;100.00
77110;BME280;66062;52.464;16.922;2023-09-19T03:24:31;99767.94;;;18.28;100.00
77110;BME280;66062;52.464;16.922;2023-09-19T03:26:57;99763.38;;;18.09;100.00
77110;BME280;66062;52.464;16.922;2023-09-19T03:29:22;99760.69;;;18.09;100.00
77110;BME280;66062;52.464;16.922;2023-09-19T03:31:48;99748.44;;;17.93;100.00
77110;BME280;66062;52.464;16.922;2023-09-19T03:34:13;99752.16;;;18.06;100.00
77110;BME280;66062;52.464;16.922;2023-09-19T03:36:39;99747.81;;;18.11;100.00
77110;BME280;66062;52.464;16.922;2023-09-19T03:39:05;99748.44;;;18.07;100.00
77110;BME280;66062;52.464;16.922;2023-09-19T03:41:31;99746.34;;;18.09;100.00
77110;BME280;66062;52.464;16.922;2023-09-19T03:43:58;99738.03;;;18.04;100.00
77110;BME280;66062;52.464;16.922;2023-09-19T03:46:23;99736.16;;;18.11;100.00
77110;BME280;66062;52.464;16.922;2023-09-19T03:48:50;99733.50;;;17.98;100.00
77110;BME280;66062;52.464;16.922;2023-09-19T03:51:15;99731.00;;;18.03;100.00
77110;BME280;66062;52.464;16.922;2023-09-19T03:53:40;99733.91;;;18.01;100.00
77110;BME280;66062;52.464;16.922;2023-09-19T03:56:06;99734.72;;;17.95;100.00
77110;BME280;66062;52.464;16.922;2023-09-19T03:58:31;99740.97;;;17.95;100.00
77110;BME280;66062;52.464;16.922;2023-09-19T04:00:57;99736.78;;;17.93;100.00
77110;BME280;66062;52.464;16.922;2023-09-19T04:03:23;99748.03;;;17.77;100.00
77110;BME280;66062;52.464;16.922;2023-09-19T04:05:50;99743.44;;;17.84;100.00
77110;BME280;66062;52.464;16.922;2023-09-19T04:08:15;99750.72;;;17.83;100.00
77110;BME280;66062;52.464;16.922;2023-09-19T04:10:42;99749.06;;;17.82;100.00
77110;BME280;66062;52.464;16.922;2023-09-19T04:13:08;99745.75;;;17.80;100.00
77110;BME280;66062;52.464;16.922;2023-09-19T04:15:34;99752.41;;;17.71;100.00
77110;BME280;66062;52.464;16.922;2023-09-19T04:17:59;99751.56;;;17.77;100.00
77110;BME280;66062;52.464;16.922;2023-09-19T04:20:24;99755.69;;;17.73;100.00
77110;BME280;66062;52.464;16.922;2023-09-19T04:22:51;99759.47;;;17.72;100.00
77110;BME280;66062;52.464;16.922;2023-09-19T04:25:16;99741.59;;;17.71;100.00
77110;BME280;66062;52.464;16.922;2023-09-19T04:27:43;99748.03;;;17.77;100.00
77110;BME280;66062;52.464;16.922;2023-09-19T04:30:09;99750.94;;;17.75;100.00
77110;BME280;66062;52.464;16.922;2023-09-19T04:32:36;99746.56;;;17.81;100.00
77110;BME280;66062;52.464;16.922;2023-09-19T04:35:05;99766.31;;;17.81;100.00
77110;BME280;66062;52.464;16.922;2023-09-19T04:37:33;99753.44;;;17.77;100.00
77110;BME280;66062;52.464;16.922;2023-09-19T04:39:58;99762.38;;;17.77;100.00
77110;BME280;66062;52.464;16.922;2023-09-19T04:42:23;99761.75;;;17.82;100.00
77110;BME280;66062;52.464;16.922;2023-09-19T04:44:50;99750.50;;;17.78;100.00
77110;BME280;66062;52.464;16.922;2023-09-19T04:47:18;99756.75;;;17.72;100.00
77110;BME280;66062;52.464;16.922;2023-09-19T04:49:44;99755.09;;;17.71;100.00
77110;BME280;66062;52.464;16.922;2023-09-19T04:52:10;99762.13;;;17.79;100.00
77110;BME280;66062;52.464;16.922;2023-09-19T04:54:35;99753.22;;;17.78;100.00
77110;BME280;66062;52.464;16.922;2023-09-19T04:57:01;99764.63;;;17.80;100.00
77110;BME280;66062;52.464;16.922;2023-09-19T04:59:27;99760.69;;;17.76;100.00
77110;BME280;66062;52.464;16.922;2023-09-19T05:01:53;99758.41;;;17.67;100.00
77110;BME280;66062;52.464;16.922;2023-09-19T05:04:19;99773.34;;;17.69;100.00
77110;BME280;66062;52.464;16.922;2023-09-19T05:06:44;99762.97;;;17.73;100.00
77110;BME280;66062;52.464;16.922;2023-09-19T05:09:10;99761.72;;;17.69;100.00
77110;BME280;66062;52.464;16.922;2023-09-19T05:11:35;99770.66;;;17.76;100.00
77110;BME280;66062;52.464;16.922;2023-09-19T05:14:03;99777.28;;;17.73;100.00
77110;BME280;66062;52.464;16.922;2023-09-19T05:16:29;99781.84;;;17.73;100.00
77110;BME280;66062;52.464;16.922;2023-09-19T05:18:57;99780.44;;;17.77;100.00
77110;BME280;66062;52.464;16.922;2023-09-19T05:21:23;99767.56;;;17.85;100.00
77110;BME280;66062;52.464;16.922;2023-09-19T05:23:51;99770.88;;;17.81;100.00
77110;BME280;66062;52.464;16.922;2023-09-19T05:26:17;99779.38;;;17.84;100.00
77110;BME280;66062;52.464;16.922;2023-09-19T05:28:43;99783.31;;;17.88;100.00
77110;BME280;66062;52.464;16.922;2023-09-19T05:31:08;99777.50;;;17.98;100.00
77110;BME280;66062;52.464;16.922;2023-09-19T05:33:34;99776.28;;;18.01;100.00
77110;BME280;66062;52.464;16.922;2023-09-19T05:35:59;99779.38;;;18.04;100.00
77110;BME280;66062;52.464;16.922;2023-09-19T05:38:24;99787.09;;;18.07;100.00
77110;BME280;66062;52.464;16.922;2023-09-19T05:40:52;99780.22;;;18.05;100.00
77110;BME280;66062;52.464;16.922;2023-09-19T05:43:17;99787.88;;;18.14;100.00
77110;BME280;66062;52.464;16.922;2023-09-19T05:45:43;99788.53;;;18.23;100.00
77110;BME280;66062;52.464;16.922;2023-09-19T05:48:14;99781.84;;;18.25;100.00
77110;BME280;66062;52.464;16.922;2023-09-19T05:50:40;99781.63;;;18.40;100.00
77110;BME280;66062;52.464;16.922;2023-09-19T05:53:06;99784.97;;;18.49;100.00
77110;BME280;66062;52.464;16.922;2023-09-19T05:55:32;99789.94;;;18.58;100.00
77110;BME280;66062;52.464;16.922;2023-09-19T05:57:58;99785.75;;;18.69;100.00
77110;BME280;66062;52.464;16.922;2023-09-19T06:00:24;99785.50;;;19.28;100.00
77110;BME280;66062;52.464;16.922;2023-09-19T06:02:51;99777.81;;;19.63;98.31
77110;BME280;66062;52.464;16.922;2023-09-19T06:05:18;99789.16;;;19.78;96.56
77110;BME280;66062;52.464;16.922;2023-09-19T06:07:43;99794.78;;;19.77;96.16
77110;BME280;66062;52.464;16.922;2023-09-19T06:10:09;99796.28;;;19.73;95.90
77110;BME280;66062;52.464;16.922;2023-09-19T06:12:42;99795.88;;;20.00;94.82
77110;BME280;66062;52.464;16.922;2023-09-19T06:15:11;99784.81;;;20.70;90.51
77110;BME280;66062;52.464;16.922;2023-09-19T06:17:49;99794.75;;;21.12;87.91
77110;BME280;66062;52.464;16.922;2023-09-19T06:20:15;99783.88;;;21.60;84.08
77110;BME280;66062;52.464;16.922;2023-09-19T06:22:42;99794.22;;;21.52;83.98
77110;BME280;66062;52.464;16.922;2023-09-19T06:25:09;99794.25;;;21.33;84.85
77110;BME280;66062;52.464;16.922;2023-09-19T06:27:39;99803.63;;;20.65;88.70
77110;BME280;66062;52.464;16.922;2023-09-19T06:30:09;99811.47;;;20.30;90.74
77110;BME280;66062;52.464;16.922;2023-09-19T06:32:36;99814.38;;;19.79;93.55
77110;BME280;66062;52.464;16.922;2023-09-19T06:35:02;99819.78;;;19.79;94.75
77110;BME280;66062;52.464;16.922;2023-09-19T06:37:28;99824.06;;;19.61;95.59
77110;BME280;66062;52.464;16.922;2023-09-19T06:39:54;99819.63;;;19.74;94.78
77110;BME280;66062;52.464;16.922;2023-09-19T06:42:19;99826.19;;;19.59;95.75
77110;BME280;66062;52.464;16.922;2023-09-19T06:44:45;99828.81;;;19.66;95.79
77110;BME280;66062;52.464;16.922;2023-09-19T06:47:10;99834.91;;;19.93;94.29
77110;BME280;66062;52.464;16.922;2023-09-19T06:49:36;99849.78;;;20.40;91.40
77110;BME280;66062;52.464;16.922;2023-09-19T06:52:01;99836.84;;;21.81;83.78
77110;BME280;66062;52.464;16.922;2023-09-19T06:54:27;99839.50;;;21.40;84.54
77110;BME280;66062;52.464;16.922;2023-09-19T06:56:58;99848.25;;;21.42;84.19
77110;BME280;66062;52.464;16.922;2023-09-19T06:59:24;99855.22;;;21.97;81.44
77110;BME280;66062;52.464;16.922;2023-09-19T07:01:49;99850.34;;;22.52;78.22
77110;BME280;66062;52.464;16.922;2023-09-19T07:04:15;99856.88;;;22.75;76.66
77110;BME280;66062;52.464;16.922;2023-09-19T07:06:42;99860.59;;;22.27;78.62
77110;BME280;66062;52.464;16.922;2023-09-19T07:09:08;99859.41;;;22.11;79.78
77110;BME280;66062;52.464;16.922;2023-09-19T07:11:33;99859.28;;;21.76;81.36
77110;BME280;66062;52.464;16.922;2023-09-19T07:13:59;99864.19;;;22.39;78.54
77110;BME280;66062;52.464;16.922;2023-09-19T07:16:24;99857.41;;;23.63;73.05
77110;BME280;66062;52.464;16.922;2023-09-19T07:18:55;99864.75;;;25.08;67.07
77110;BME280;66062;52.464;16.922;2023-09-19T07:21:22;99871.69;;;26.13;62.63
77110;BME280;66062;52.464;16.922;2023-09-19T07:23:47;99867.47;;;26.27;60.33
77110;BME280;66062;52.464;16.922;2023-09-19T07:26:13;99864.72;;;25.95;60.63
77110;BME280;66062;52.464;16.922;2023-09-19T07:28:38;99874.97;;;27.15;57.40
77110;BME280;66062;52.464;16.922;2023-09-19T07:31:04;99877.72;;;26.78;58.93
77110;BME280;66062;52.464;16.922;2023-09-19T07:33:30;99877.69;;;27.68;55.90
77110;BME280;66062;52.464;16.922;2023-09-19T07:35:55;99880.94;;;27.64;54.87
77110;BME280;66062;52.464;16.922;2023-09-19T07:38:21;99883.31;;;27.41;55.62
77110;BME280;66062;52.464;16.922;2023-09-19T07:40:48;99892.63;;;27.40;54.60
77110;BME280;66062;52.464;16.922;2023-09-19T07:43:13;99889.94;;;26.02;59.29
77110;BME280;66062;52.464;16.922;2023-09-19T07:45:38;99909.38;;;24.02;67.48
77110;BME280;66062;52.464;16.922;2023-09-19T07:48:05;99899.66;;;23.26;71.68
77110;BME280;66062;52.464;16.922;2023-09-19T07:50:33;99908.88;;;23.36;72.54
77110;BME280;66062;52.464;16.922;2023-09-19T07:53:02;99908.44;;;22.81;74.51
77110;BME280;66062;52.464;16.922;2023-09-19T07:55:30;99906.34;;;23.58;71.92
77110;BME280;66062;52.464;16.922;2023-09-19T07:57:55;99904.16;;;24.28;68.01
77110;BME280;66062;52.464;16.922;2023-09-19T08:00:21;99911.13;;;24.08;66.66
77110;BME280;66062;52.464;16.922;2023-09-19T08:02:47;99915.41;;;24.04;66.13
77110;BME280;66062;52.464;16.922;2023-09-19T08:05:17;99919.88;;;24.38;64.21
77110;BME280;66062;52.464;16.922;2023-09-19T08:07:44;99914.69;;;23.17;68.07
77110;BME280;66062;52.464;16.922;2023-09-19T08:10:14;99917.84;;;22.55;70.06
77110;BME280;66062;52.464;16.922;2023-09-19T08:12:41;99924.06;;;21.91;73.35
77110;BME280;66062;52.464;16.922;2023-09-19T08:15:18;99926.97;;;21.78;73.85
77110;BME280;66062;52.464;16.922;2023-09-19T08:17:45;99939.94;;;21.76;75.09
77110;BME280;66062;52.464;16.922;2023-09-19T08:20:11;99938.53;;;21.55;75.79
77110;BME280;66062;52.464;16.922;2023-09-19T08:22:51;99946.59;;;21.25;77.63
77110;BME280;66062;52.464;16.922;2023-09-19T08:25:23;99952.81;;;21.32;77.74
77110;BME280;66062;52.464;16.922;2023-09-19T08:27:51;99950.66;;;21.71;75.60
77110;BME280;66062;52.464;16.922;2023-09-19T08:30:21;99952.72;;;22.05;73.49
77110;BME280;66062;52.464;16.922;2023-09-19T08:32:59;99948.16;;;22.59;71.21
77110;BME280;66062;52.464;16.922;2023-09-19T08:35:25;99952.16;;;22.45;71.28
77110;BME280;66062;52.464;16.922;2023-09-19T08:37:51;99960.91;;;21.87;73.11
77110;BME280;66062;52.464;16.922;2023-09-19T08:40:17;99960.19;;;21.25;75.13
77110;BME280;66062;52.464;16.922;2023-09-19T08:42:52;99964.56;;;21.45;75.32
77110;BME280;66062;52.464;16.922;2023-09-19T08:45:23;99972.38;;;21.34;74.03
77110;BME280;66062;52.464;16.922;2023-09-19T08:48:04;99972.63;;;21.08;74.61
77110;BME280;66062;52.464;16.922;2023-09-19T08:50:33;99969.16;;;21.44;73.04
77110;BME280;66062;52.464;16.922;2023-09-19T08:53:11;99963.00;;;21.85;70.68
77110;BME280;66062;52.464;16.922;2023-09-19T08:55:40;99973.53;;;22.41;67.84
77110;BME280;66062;52.464;16.922;2023-09-19T08:58:10;99969.28;;;22.45;67.12
77110;BME280;66062;52.464;16.922;2023-09-19T09:00:36;99967.94;;;22.25;68.04
77110;BME280;66062;52.464;16.922;2023-09-19T09:03:03;99970.88;;;22.23;67.21
77110;BME280;66062;52.464;16.922;2023-09-19T09:05:32;99958.34;;;22.22;66.80
77110;BME280;66062;52.464;16.922;2023-09-19T09:08:00;99959.84;;;22.48;65.38
77110;BME280;66062;52.464;16.922;2023-09-19T09:10:26;99961.97;;;23.11;64.55
77110;BME280;66062;52.464;16.922;2023-09-19T09:12:53;99963.06;;;23.73;60.82
77110;BME280;66062;52.464;16.922;2023-09-19T09:15:21;99967.72;;;24.01;58.48
77110;BME280;66062;52.464;16.922;2023-09-19T09:17:51;99972.13;;;25.30;55.31
77110;BME280;66062;52.464;16.922;2023-09-19T09:20:21;99966.72;;;27.50;48.55
77110;BME280;66062;52.464;16.922;2023-09-19T09:22:54;99960.50;;;28.77;45.90
77110;BME280;66062;52.464;16.922;2023-09-19T09:25:21;99965.91;;;30.62;40.16
77110;BME280;66062;52.464;16.922;2023-09-19T09:28:02;99972.03;;;29.05;42.67
77110;BME280;66062;52.464;16.922;2023-09-19T09:30:34;99968.16;;;28.70;43.06
77110;BME280;66062;52.464;16.922;2023-09-19T09:33:13;99979.34;;;27.14;45.85
77110;BME280;66062;52.464;16.922;2023-09-19T09:35:58;99985.97;;;26.86;46.59
77110;BME280;66062;52.464;16.922;2023-09-19T09:38:30;99992.03;;;25.86;48.12
77110;BME280;66062;52.464;16.922;2023-09-19T09:41:09;100004.34;;;25.28;49.99
77110;BME280;66062;52.464;16.922;2023-09-19T09:43:41;100001.66;;;26.64;47.00
77110;BME280;66062;52.464;16.922;2023-09-19T09:46:14;99999.16;;;28.40;42.77
77110;BME280;66062;52.464;16.922;2023-09-19T09:51:50;100019.53;;;27.03;44.66
77110;BME280;66062;52.464;16.922;2023-09-19T09:54:23;100016.44;;;28.31;41.07
77110;BME280;66062;52.464;16.922;2023-09-19T09:56:53;100020.00;;;28.31;41.02
77110;BME280;66062;52.464;16.922;2023-09-19T09:59:54;100020.38;;;28.90;39.40
77110;BME280;66062;52.464;16.922;2023-09-19T10:02:35;100031.09;;;29.12;38.36
77110;BME280;66062;52.464;16.922;2023-09-19T10:07:50;100025.94;;;31.61;35.46
77110;BME280;66062;52.464;16.922;2023-09-19T10:10:35;100029.03;;;32.02;33.14
77110;BME280;66062;52.464;16.922;2023-09-19T10:13:20;100035.72;;;29.62;35.97
77110;BME280;66062;52.464;16.922;2023-09-19T10:15:49;100029.44;;;29.21;36.77
77110;BME280;66062;52.464;16.922;2023-09-19T10:18:21;100023.94;;;29.47;36.06
77110;BME280;66062;52.464;16.922;2023-09-19T10:20:47;100031.34;;;29.46;35.97
77110;BME280;66062;52.464;16.922;2023-09-19T10:23:16;100029.22;;;30.67;34.39
77110;BME280;66062;52.464;16.922;2023-09-19T10:25:48;100023.78;;;31.24;33.96
77110;BME280;66062;52.464;16.922;2023-09-19T10:28:14;100019.34;;;30.94;34.16
77110;BME280;66062;52.464;16.922;2023-09-19T10:30:45;100017.72;;;30.54;34.38
77110;BME280;66062;52.464;16.922;2023-09-19T10:33:13;100000.13;;;30.50;35.10
77110;BME280;66062;52.464;16.922;2023-09-19T10:35:42;100013.69;;;31.43;34.12
77110;BME280;66062;52.464;16.922;2023-09-19T10:38:10;100003.25;;;32.31;32.36
77110;BME280;66062;52.464;16.922;2023-09-19T10:40:37;100003.66;;;32.24;31.65
77110;BME280;66062;52.464;16.922;2023-09-19T10:43:06;100009.53;;;32.36;31.27
77110;BME280;66062;52.464;16.922;2023-09-19T10:45:35;100009.34;;;31.37;32.79
77110;BME280;66062;52.464;16.922;2023-09-19T10:48:02;100010.88;;;31.20;33.09
77110;BME280;66062;52.464;16.922;2023-09-19T10:50:51;100017.81;;;31.17;33.59
77110;BME280;66062;52.464;16.922;2023-09-19T10:53:17;100029.50;;;30.65;33.77
77110;BME280;66062;52.464;16.922;2023-09-19T10:55:56;100031.09;;;28.92;37.30
77110;BME280;66062;52.464;16.922;2023-09-19T10:58:29;100038.91;;;26.65;42.40
77110;BME280;66062;52.464;16.922;2023-09-19T11:00:56;100054.00;;;25.25;45.83
77110;BME280;66062;52.464;16.922;2023-09-19T11:03:23;100050.88;;;25.33;46.78
77110;BME280;66062;52.464;16.922;2023-09-19T11:06:01;100044.94;;;26.67;42.85
77110;BME280;66062;52.464;16.922;2023-09-19T11:08:30;100040.06;;;28.42;36.64
77110;BME280;66062;52.464;16.922;2023-09-19T11:10:57;100048.78;;;28.14;35.99
77110;BME280;66062;52.464;16.922;2023-09-19T11:13:25;100051.91;;;28.58;34.73
77110;BME280;66062;52.464;16.922;2023-09-19T11:26:42;100069.16;;;27.02;36.64
77110;BME280;66062;52.464;16.922;2023-09-19T11:29:29;100068.88;;;26.28;38.74
77110;BME280;66062;52.464;16.922;2023-09-19T11:31:56;100071.34;;;26.78;37.93
77110;BME280;66062;52.464;16.922;2023-09-19T11:34:45;100060.72;;;26.33;39.01
77110;BME280;66062;52.464;16.922;2023-09-19T11:39:39;100081.22;;;25.70;40.12
77110;BME280;66062;52.464;16.922;2023-09-19T11:48:05;100066.31;;;29.41;33.61
77110;BME280;66062;52.464;16.922;2023-09-19T11:50:32;100067.31;;;29.85;33.94
77110;BME280;66062;52.464;16.922;2023-09-19T11:52:59;100063.63;;;30.20;32.97
77110;BME280;66062;52.464;16.922;2023-09-19T11:55:25;100051.72;;;28.84;33.21
77110;BME280;66062;52.464;16.922;2023-09-19T11:57:56;100057.19;;;26.86;37.25
77110;BME280;66062;52.464;16.922;2023-09-19T12:00:22;100071.50;;;25.24;40.54
77110;BME280;66062;52.464;16.922;2023-09-19T12:02:50;100071.03;;;26.48;39.00
77110;BME280;66062;52.464;16.922;2023-09-19T12:05:28;100067.63;;;27.16;36.59
77110;BME280;66062;52.464;16.922;2023-09-19T12:07:54;100062.97;;;27.53;36.59
77110;BME280;66062;52.464;16.922;2023-09-19T12:10:19;100068.22;;;27.60;35.63
77110;BME280;66062;52.464;16.922;2023-09-19T12:12:48;100057.56;;;28.21;33.17
77110;BME280;66062;52.464;16.922;2023-09-19T12:15:14;100061.59;;;29.21;32.21
77110;BME280;66062;52.464;16.922;2023-09-19T12:17:41;100048.16;;;29.19;32.99
77110;BME280;66062;52.464;16.922;2023-09-19T12:20:08;100055.84;;;29.38;31.93
77110;BME280;66062;52.464;16.922;2023-09-19T12:22:45;100043.97;;;29.67;30.96
77110;BME280;66062;52.464;16.922;2023-09-19T12:25:12;100056.09;;;29.11;31.91
77110;BME280;66062;52.464;16.922;2023-09-19T12:27:44;100045.66;;;29.48;30.73
77110;BME280;66062;52.464;16.922;2023-09-19T12:30:12;100035.09;;;29.96;30.29
77110;BME280;66062;52.464;16.922;2023-09-19T12:32:40;100044.28;;;30.30;30.08
77110;BME280;66062;52.464;16.922;2023-09-19T12:35:08;100057.59;;;30.13;30.06
77110;BME280;66062;52.464;16.922;2023-09-19T12:37:37;100043.69;;;29.69;30.28
77110;BME280;66062;52.464;16.922;2023-09-19T12:40:05;100045.41;;;30.24;29.79
77110;BME280;66062;52.464;16.922;2023-09-19T12:42:42;100045.94;;;31.14;28.96
77110;BME280;66062;52.464;16.922;2023-09-19T12:45:08;100038.69;;;31.57;27.35
77110;BME280;66062;52.464;16.922;2023-09-19T12:47:34;100039.81;;;30.49;28.62
77110;BME280;66062;52.464;16.922;2023-09-19T12:52:49;100052.06;;;30.72;27.56
77110;BME280;66062;52.464;16.922;2023-09-19T12:55:31;100054.31;;;30.65;27.65
77110;BME280;66062;52.464;16.922;2023-09-19T12:58:11;100046.91;;;31.33;26.91
77110;BME280;66062;52.464;16.922;2023-09-19T13:00:42;100054.34;;;30.01;28.45
77110;BME280;66062;52.464;16.922;2023-09-19T13:05:52;100051.09;;;27.43;32.35
77110;BME280;66062;52.464;16.922;2023-09-19T13:08:29;100047.25;;;28.58;31.32
77110;BME280;66062;52.464;16.922;2023-09-19T13:11:06;100051.97;;;29.59;29.16
77110;BME280;66062;52.464;16.922;2023-09-19T13:13:34;100047.31;;;29.09;29.46
77110;BME280;66062;52.464;16.922;2023-09-19T13:16:02;100046.06;;;28.19;30.64
77110;BME280;66062;52.464;16.922;2023-09-19T13:18:28;100042.94;;;29.38;28.98
77110;BME280;66062;52.464;16.922;2023-09-19T13:21:08;100046.91;;;30.06;28.11
77110;BME280;66062;52.464;16.922;2023-09-19T13:23:37;100041.25;;;29.27;29.41
77110;BME280;66062;52.464;16.922;2023-09-19T13:26:03;100044.25;;;28.60;30.55
77110;BME280;66062;52.464;16.922;2023-09-19T13:28:30;100039.63;;;28.90;30.87
77110;BME280;66062;52.464;16.922;2023-09-19T13:30:56;100047.72;;;28.35;30.84
77110;BME280;66062;52.464;16.922;2023-09-19T13:33:22;100046.44;;;28.58;30.70